sensor_id;sensor_type;location;lat;lon;timestamp;pressure;altitude;pressure_sealevel;temperature;humidity
82672;BME280;72378;52.468;13.432;2023-09-07T00:00:26;101913.41;;;21.15;59.78
82672;BME280;72378;52.468;13.432;2023-09-07T00:02:52;101911.75;;;21.08;60.03
82672;BME280;72378;52.468;13.432;2023-09-07T00:05:19;101911.75;;;21.08;60.09
82672;BME280;72378;52.468;13.432;2023-09-07T00:07:45;101917.69;;;21.05;60.35
82672;BME280;72378;52.468;13.432;2023-09-07T00:10:13;101922.69;;;21.14;59.84
82672;BME280;72378;52.468;13.432;2023-09-07T00:12:40;101924.59;;;21.20;60.03
82672;BME280;72378;52.468;13.432;2023-09-07T00:15:07;101916.50;;;21.25;60.06
82672;BME280;72378;52.468;13.432;2023-09-07T00:17:35;101919.31;;;21.19;59.90
82672;BME280;72378;52.468;13.432;2023-09-07T00:20:02;101920.13;;;21.19;59.91
82672;BME280;72378;52.468;13.432;2023-09-07T00:22:34;101918.41;;;21.25;59.81
82672;BME280;72378;52.468;13.432;2023-09-07T00:25:00;101917.47;;;21.06;60.61
82672;BME280;72378;52.468;13.432;2023-09-07T00:27:30;101921.72;;;21.02;60.27
82672;BME280;72378;52.468;13.432;2023-09-07T00:29:56;101918.38;;;21.00;60.68
82672;BME280;72378;52.468;13.432;2023-09-07T00:32:22;101911.66;;;20.83;61.47
82672;BME280;72378;52.468;13.432;2023-09-07T00:34:49;101920.47;;;20.98;60.70
82672;BME280;72378;52.468;13.432;2023-09-07T00:37:15;101919.69;;;20.85;60.85
82672;BME280;72378;52.468;13.432;2023-09-07T00:39:41;101918.19;;;20.82;60.82
82672;BME280;72378;52.468;13.432;2023-09-07T00:42:07;101920.50;;;20.92;61.08
82672;BME280;72378;52.468;13.432;2023-09-07T00:44:35;101911.88;;;20.82;61.26
82672;BME280;72378;52.468;13.432;2023-09-07T00:47:01;101915.81;;;20.92;60.88
82672;BME280;72378;52.468;13.432;2023-09-07T00:49:27;101912.25;;;20.92;60.73
82672;BME280;72378;52.468;13.432;2023-09-07T00:51:54;101913.78;;;20.81;60.86
82672;BME280;72378;52.468;13.432;2023-09-07T00:54:21;101921.47;;;20.66;61.55
82672;BME280;72378;52.468;13.432;2023-09-07T00:56:47;101922.94;;;20.62;61.69
82672;BME280;72378;52.468;13.432;2023-09-07T00:59:14;101916.81;;;20.66;61.76
82672;BME280;72378;52.468;13.432;2023-09-07T01:01:41;101917.00;;;20.71;61.61
82672;BME280;72378;52.468;13.432;2023-09-07T01:04:08;101915.09;;;20.65;61.44
82672;BME280;72378;52.468;13.432;2023-09-07T01:06:35;101915.31;;;20.64;61.70
82672;BME280;72378;52.468;13.432;2023-09-07T01:09:08;101910.97;;;20.43;62.56
82672;BME280;72378;52.468;13.432;2023-09-07T01:11:37;101910.97;;;20.43;62.47
82672;BME280;72378;52.468;13.432;2023-09-07T01:14:03;101908.00;;;20.45;61.97
82672;BME280;72378;52.468;13.432;2023-09-07T01:16:30;101908.47;;;20.35;62.71
82672;BME280;72378;52.468;13.432;2023-09-07T01:19:00;101907.81;;;20.33;62.66
82672;BME280;72378;52.468;13.432;2023-09-07T01:21:27;101908.94;;;20.26;63.15
82672;BME280;72378;52.468;13.432;2023-09-07T01:23:55;101900.66;;;20.13;63.37
82672;BME280;72378;52.468;13.432;2023-09-07T01:26:22;101905.56;;;20.17;63.47
82672;BME280;72378;52.468;13.432;2023-09-07T01:28:49;101907.22;;;20.12;63.56
82672;BME280;72378;52.468;13.432;2023-09-07T01:31:15;101912.72;;;20.12;63.64
82672;BME280;72378;52.468;13.432;2023-09-07T01:33:42;101908.91;;;20.13;63.53
82672;BME280;72378;52.468;13.432;2023-09-07T01:36:08;101911.03;;;20.11;63.52
82672;BME280;72378;52.468;13.432;2023-09-07T01:38:35;101910.19;;;20.23;63.25
82672;BME280;72378;52.468;13.432;2023-09-07T01:41:02;101906.78;;;20.15;63.23
82672;BME280;72378;52.468;13.432;2023-09-07T01:43:29;101908.72;;;20.21;63.07
82672;BME280;72378;52.468;13.432;2023-09-07T01:45:55;101905.34;;;20.19;63.18
82672;BME280;72378;52.468;13.432;2023-09-07T01:48:21;101908.91;;;20.13;62.96
82672;BME280;72378;52.468;13.432;2023-09-07T01:50:52;101910.59;;;20.14;62.66
82672;BME280;72378;52.468;13.432;2023-09-07T01:53:18;101906.59;;;20.16;62.64
82672;BME280;72378;52.468;13.432;2023-09-07T01:55:44;101910.19;;;20.17;62.66
82672;BME280;72378;52.468;13.432;2023-09-07T01:58:12;101912.28;;;20.15;62.50
82672;BME280;72378;52.468;13.432;2023-09-07T02:00:38;101893.91;;;20.22;61.56
82672;BME280;72378;52.468;13.432;2023-09-07T02:03:05;101914.44;;;20.19;62.44
82672;BME280;72378;52.468;13.432;2023-09-07T02:05:32;101917.81;;;20.02;62.95
82672;BME280;72378;52.468;13.432;2023-09-07T02:07:58;101911.66;;;20.13;62.69
82672;BME280;72378;52.468;13.432;2023-09-07T02:10:24;101904.03;;;20.15;62.25
82672;BME280;72378;52.468;13.432;2023-09-07T02:12:50;101910.84;;;20.06;62.70
82672;BME280;72378;52.468;13.432;2023-09-07T02:15:18;101905.94;;;20.08;62.71
82672;BME280;72378;52.468;13.432;2023-09-07T02:17:44;101908.06;;;20.12;62.31
82672;BME280;72378;52.468;13.432;2023-09-07T02:20:11;101910.22;;;19.97;62.80
82672;BME280;72378;52.468;13.432;2023-09-07T02:22:38;101913.56;;;19.99;63.15
82672;BME280;72378;52.468;13.432;2023-09-07T02:25:05;101903.03;;;19.90;63.17
82672;BME280;72378;52.468;13.432;2023-09-07T02:27:32;101904.06;;;20.02;62.42
82672;BME280;72378;52.468;13.432;2023-09-07T02:29:58;101910.44;;;19.96;63.18
82672;BME280;72378;52.468;13.432;2023-09-07T02:32:26;101903.03;;;19.90;62.86
82672;BME280;72378;52.468;13.432;2023-09-07T02:34:52;101916.34;;;19.93;62.84
82672;BME280;72378;52.468;13.432;2023-09-07T02:37:19;101905.16;;;19.75;62.85
82672;BME280;72378;52.468;13.432;2023-09-07T02:39:45;101903.50;;;19.67;63.35
82672;BME280;72378;52.468;13.432;2023-09-07T02:42:12;101901.78;;;19.66;63.50
82672;BME280;72378;52.468;13.432;2023-09-07T02:44:38;101905.63;;;19.58;63.79
82672;BME280;72378;52.468;13.432;2023-09-07T02:47:04;101903.47;;;19.60;63.83
82672;BME280;72378;52.468;13.432;2023-09-07T02:49:32;101910.03;;;19.46;64.38
82672;BME280;72378;52.468;13.432;2023-09-07T02:51:58;101915.94;;;19.56;64.01
82672;BME280;72378;52.468;13.432;2023-09-07T02:54:24;101920.81;;;19.48;64.45
82672;BME280;72378;52.468;13.432;2023-09-07T02:56:51;101908.31;;;19.52;64.09
82672;BME280;72378;52.468;13.432;2023-09-07T02:59:17;101913.81;;;19.52;64.40
82672;BME280;72378;52.468;13.432;2023-09-07T03:01:44;101916.13;;;19.42;64.30
82672;BME280;72378;52.468;13.432;2023-09-07T03:04:10;101915.72;;;19.32;64.83
82672;BME280;72378;52.468;13.432;2023-09-07T03:06:38;101913.78;;;19.26;64.99
82672;BME280;72378;52.468;13.432;2023-09-07T03:09:05;101925.75;;;19.05;66.04
82672;BME280;72378;52.468;13.432;2023-09-07T03:11:34;101919.63;;;19.03;66.08
82672;BME280;72378;52.468;13.432;2023-09-07T03:14:01;101923.44;;;19.02;66.02
82672;BME280;72378;52.468;13.432;2023-09-07T03:16:27;101923.00;;;18.92;66.22
82672;BME280;72378;52.468;13.432;2023-09-07T03:18:55;101921.69;;;18.82;67.02
82672;BME280;72378;52.468;13.432;2023-09-07T03:21:21;101920.66;;;18.89;66.76
82672;BME280;72378;52.468;13.432;2023-09-07T03:23:52;101911.81;;;18.94;66.29
82672;BME280;72378;52.468;13.432;2023-09-07T03:26:18;101917.28;;;18.87;66.81
82672;BME280;72378;52.468;13.432;2023-09-07T03:28:45;101921.50;;;18.90;66.68
82672;BME280;72378;52.468;13.432;2023-09-07T03:31:12;101921.91;;;18.87;66.82
82672;BME280;72378;52.468;13.432;2023-09-07T03:33:38;101929.66;;;18.70;67.07
82672;BME280;72378;52.468;13.432;2023-09-07T03:36:04;101924.31;;;18.49;67.93
82672;BME280;72378;52.468;13.432;2023-09-07T03:38:31;101927.06;;;18.56;67.99
82672;BME280;72378;52.468;13.432;2023-09-07T03:40:58;101920.53;;;18.57;68.14
82672;BME280;72378;52.468;13.432;2023-09-07T03:43:25;101919.47;;;18.58;67.77
82672;BME280;72378;52.468;13.432;2023-09-07T03:45:51;101915.50;;;18.60;67.63
82672;BME280;72378;52.468;13.432;2023-09-07T03:48:18;101922.06;;;18.66;67.49
82672;BME280;72378;52.468;13.432;2023-09-07T03:50:44;101923.28;;;18.57;67.81
82672;BME280;72378;52.468;13.432;2023-09-07T03:53:10;101932.94;;;18.53;68.10
82672;BME280;72378;52.468;13.432;2023-09-07T03:55:40;101924.03;;;18.44;68.71
82672;BME280;72378;52.468;13.432;2023-09-07T03:58:09;101930.16;;;18.46;68.45
82672;BME280;72378;52.468;13.432;2023-09-07T04:00:38;101931.88;;;18.47;68.27
82672;BME280;72378;52.468;13.432;2023-09-07T04:03:04;101934.38;;;18.42;68.51
82672;BME280;72378;52.468;13.432;2023-09-07T04:05:30;101931.75;;;18.34;68.67
82672;BME280;72378;52.468;13.432;2023-09-07T04:07:57;101928.41;;;18.32;68.83
82672;BME280;72378;52.468;13.432;2023-09-07T04:10:23;101931.00;;;18.40;68.62
82672;BME280;72378;52.468;13.432;2023-09-07T04:12:49;101926.16;;;18.42;68.36
82672;BME280;72378;52.468;13.432;2023-09-07T04:15:17;101936.00;;;18.36;68.69
82672;BME280;72378;52.468;13.432;2023-09-07T04:17:43;101929.84;;;18.28;69.09
82672;BME280;72378;52.468;13.432;2023-09-07T04:20:10;101932.16;;;18.31;68.79
82672;BME280;72378;52.468;13.432;2023-09-07T04:22:38;101931.28;;;18.24;69.03
82672;BME280;72378;52.468;13.432;2023-09-07T04:25:05;101935.53;;;18.26;69.13
82672;BME280;72378;52.468;13.432;2023-09-07T04:27:31;101949.91;;;18.35;69.01
82672;BME280;72378;52.468;13.432;2023-09-07T04:29:58;101949.13;;;18.41;68.53
82672;BME280;72378;52.468;13.432;2023-09-07T04:32:25;101946.56;;;18.39;68.47
82672;BME280;72378;52.468;13.432;2023-09-07T04:34:55;101946.56;;;18.39;68.73
82672;BME280;72378;52.468;13.432;2023-09-07T04:37:22;101946.06;;;18.29;68.85
82672;BME280;72378;52.468;13.432;2023-09-07T04:39:50;101950.31;;;18.32;69.19
82672;BME280;72378;52.468;13.432;2023-09-07T04:42:17;101942.88;;;18.26;69.08
82672;BME280;72378;52.468;13.432;2023-09-07T04:44:44;101948.81;;;18.29;68.83
82672;BME280;72378;52.468;13.432;2023-09-07T04:47:10;101951.75;;;18.28;69.03
82672;BME280;72378;52.468;13.432;2023-09-07T04:49:38;101956.16;;;18.29;69.13
82672;BME280;72378;52.468;13.432;2023-09-07T04:52:04;101955.88;;;18.17;69.60
82672;BME280;72378;52.468;13.432;2023-09-07T04:54:32;101952.56;;;18.22;68.99
82672;BME280;72378;52.468;13.432;2023-09-07T04:56:58;101955.34;;;18.28;69.22
82672;BME280;72378;52.468;13.432;2023-09-07T04:59:24;101952.91;;;18.40;68.45
82672;BME280;72378;52.468;13.432;2023-09-07T05:01:51;101955.03;;;18.45;68.48
82672;BME280;72378;52.468;13.432;2023-09-07T05:04:17;101956.13;;;18.50;68.15
82672;BME280;72378;52.468;13.432;2023-09-07T05:06:45;101951.88;;;18.48;68.57
82672;BME280;72378;52.468;13.432;2023-09-07T05:09:11;101958.22;;;18.48;68.54
82672;BME280;72378;52.468;13.432;2023-09-07T05:11:37;101958.94;;;18.63;68.24
82672;BME280;72378;52.468;13.432;2023-09-07T05:14:04;101953.41;;;18.57;68.33
82672;BME280;72378;52.468;13.432;2023-09-07T05:16:30;101961.16;;;18.47;69.00
82672;BME280;72378;52.468;13.432;2023-09-07T05:18:56;101959.50;;;18.52;68.83
82672;BME280;72378;52.468;13.432;2023-09-07T05:21:23;101962.34;;;18.72;68.01
82672;BME280;72378;52.468;13.432;2023-09-07T05:23:50;101963.44;;;18.77;67.71
82672;BME280;72378;52.468;13.432;2023-09-07T05:26:21;101966.59;;;18.74;67.34
82672;BME280;72378;52.468;13.432;2023-09-07T05:28:47;101961.56;;;18.84;66.99
82672;BME280;72378;52.468;13.432;2023-09-07T05:31:13;101961.59;;;18.97;66.96
82672;BME280;72378;52.468;13.432;2023-09-07T05:33:39;101960.16;;;19.01;66.81
82672;BME280;72378;52.468;13.432;2023-09-07T05:36:06;101959.97;;;19.09;66.37
82672;BME280;72378;52.468;13.432;2023-09-07T05:38:32;101964.69;;;19.35;65.65
82672;BME280;72378;52.468;13.432;2023-09-07T05:41:00;101964.28;;;19.44;65.13
82672;BME280;72378;52.468;13.432;2023-09-07T05:43:26;101960.94;;;19.75;63.53
82672;BME280;72378;52.468;13.432;2023-09-07T05:45:53;101975.94;;;19.92;63.12
82672;BME280;72378;52.468;13.432;2023-09-07T05:48:19;101969.75;;;20.10;62.56
82672;BME280;72378;52.468;13.432;2023-09-07T05:50:45;101976.50;;;20.53;60.80
82672;BME280;72378;52.468;13.432;2023-09-07T05:53:12;101980.59;;;21.63;57.33
82672;BME280;72378;52.468;13.432;2023-09-07T05:55:38;101978.13;;;22.47;54.60
82672;BME280;72378;52.468;13.432;2023-09-07T05:58:06;101973.97;;;22.99;52.62
82672;BME280;72378;52.468;13.432;2023-09-07T06:00:33;101977.25;;;23.78;50.29
82672;BME280;72378;52.468;13.432;2023-09-07T06:03:00;101977.56;;;24.34;48.88
82672;BME280;72378;52.468;13.432;2023-09-07T06:05:27;101982.34;;;24.74;48.12
82672;BME280;72378;52.468;13.432;2023-09-07T06:07:53;101974.16;;;24.79;47.64
82672;BME280;72378;52.468;13.432;2023-09-07T06:10:19;101982.78;;;24.94;46.93
82672;BME280;72378;52.468;13.432;2023-09-07T06:12:45;101977.69;;;25.02;46.29
82672;BME280;72378;52.468;13.432;2023-09-07T06:15:13;101985.09;;;25.53;45.38
82672;BME280;72378;52.468;13.432;2023-09-07T06:17:39;101984.75;;;24.70;46.81
82672;BME280;72378;52.468;13.432;2023-09-07T06:20:07;101990.72;;;23.86;49.24
82672;BME280;72378;52.468;13.432;2023-09-07T06:22:33;101998.19;;;23.27;51.42
82672;BME280;72378;52.468;13.432;2023-09-07T06:25:00;101992.16;;;23.18;51.65
82672;BME280;72378;52.468;13.432;2023-09-07T06:27:26;101995.03;;;22.57;53.16
82672;BME280;72378;52.468;13.432;2023-09-07T06:29:52;101987.03;;;22.07;54.60
82672;BME280;72378;52.468;13.432;2023-09-07T06:32:20;101988.69;;;21.89;55.65
82672;BME280;72378;52.468;13.432;2023-09-07T06:34:46;101988.69;;;21.58;56.61
82672;BME280;72378;52.468;13.432;2023-09-07T06:37:13;101989.13;;;21.55;56.63
82672;BME280;72378;52.468;13.432;2023-09-07T06:39:40;101998.00;;;21.57;56.65
82672;BME280;72378;52.468;13.432;2023-09-07T06:42:08;101986.72;;;21.65;56.47
82672;BME280;72378;52.468;13.432;2023-09-07T06:44:35;101992.16;;;21.78;55.73
82672;BME280;72378;52.468;13.432;2023-09-07T06:47:02;101988.16;;;21.74;56.14
82672;BME280;72378;52.468;13.432;2023-09-07T06:49:30;101989.44;;;21.72;55.72
82672;BME280;72378;52.468;13.432;2023-09-07T06:51:56;101990.41;;;22.09;55.20
82672;BME280;72378;52.468;13.432;2023-09-07T06:54:22;101999.03;;;22.61;53.48
82672;BME280;72378;52.468;13.432;2023-09-07T06:56:48;102003.09;;;22.77;53.05
82672;BME280;72378;52.468;13.432;2023-09-07T06:59:15;101995.59;;;24.14;49.22
82672;BME280;72378;52.468;13.432;2023-09-07T07:01:41;101994.03;;;24.06;48.50
82672;BME280;72378;52.468;13.432;2023-09-07T07:04:07;102001.97;;;25.12;46.24
82672;BME280;72378;52.468;13.432;2023-09-07T07:06:36;101998.44;;;25.56;45.28
82672;BME280;72378;52.468;13.432;2023-09-07T07:09:02;102000.53;;;26.27;43.09
82672;BME280;72378;52.468;13.432;2023-09-07T07:11:29;102004.75;;;27.11;41.36
82672;BME280;72378;52.468;13.432;2023-09-07T07:13:55;102007.94;;;26.76;41.58
82672;BME280;72378;52.468;13.432;2023-09-07T07:16:21;102002.69;;;27.44;40.30
82672;BME280;72378;52.468;13.432;2023-09-07T07:18:48;102007.91;;;27.62;39.84
82672;BME280;72378;52.468;13.432;2023-09-07T07:21:14;101994.88;;;27.68;39.01
82672;BME280;72378;52.468;13.432;2023-09-07T07:23:42;102002.78;;;28.96;37.05
82672;BME280;72378;52.468;13.432;2023-09-07T07:26:08;102010.25;;;29.47;36.27
82672;BME280;72378;52.468;13.432;2023-09-07T07:28:35;102010.75;;;29.29;36.73
82672;BME280;72378;52.468;13.432;2023-09-07T07:31:07;102012.72;;;29.34;35.99
82672;BME280;72378;52.468;13.432;2023-09-07T07:33:33;102010.31;;;29.72;34.80
82672;BME280;72378;52.468;13.432;2023-09-07T07:36:00;102013.63;;;29.64;35.38
82672;BME280;72378;52.468;13.432;2023-09-07T07:38:26;102017.44;;;28.35;37.18
82672;BME280;72378;52.468;13.432;2023-09-07T07:40:54;102010.56;;;29.66;35.22
82672;BME280;72378;52.468;13.432;2023-09-07T07:43:20;102020.09;;;29.75;35.23
82672;BME280;72378;52.468;13.432;2023-09-07T07:45:47;102013.69;;;29.99;34.59
82672;BME280;72378;52.468;13.432;2023-09-07T07:48:14;102006.38;;;28.86;36.00
82672;BME280;72378;52.468;13.432;2023-09-07T07:50:40;102018.69;;;29.72;34.49
82672;BME280;72378;52.468;13.432;2023-09-07T07:53:07;102017.25;;;29.60;35.19
82672;BME280;72378;52.468;13.432;2023-09-07T07:55:34;102017.59;;;30.18;33.53
82672;BME280;72378;52.468;13.432;2023-09-07T07:58:05;102017.03;;;29.81;34.59
82672;BME280;72378;52.468;13.432;2023-09-07T08:00:33;102013.59;;;30.75;33.27
82672;BME280;72378;52.468;13.432;2023-09-07T08:02:59;102014.19;;;30.62;32.83
82672;BME280;72378;52.468;13.432;2023-09-07T08:05:25;102018.75;;;31.21;31.75
82672;BME280;72378;52.468;13.432;2023-09-07T08:07:52;102011.69;;;30.65;32.29
82672;BME280;72378;52.468;13.432;2023-09-07T08:10:18;102026.53;;;31.29;32.25
82672;BME280;72378;52.468;13.432;2023-09-07T08:12:45;102019.66;;;31.66;30.94
82672;BME280;72378;52.468;13.432;2023-09-07T08:15:12;102020.50;;;32.33;28.91
82672;BME280;72378;52.468;13.432;2023-09-07T08:17:39;102020.88;;;32.56;28.88
82672;BME280;72378;52.468;13.432;2023-09-07T08:20:06;102025.81;;;31.63;30.85
82672;BME280;72378;52.468;13.432;2023-09-07T08:22:39;102018.53;;;31.67;30.09
82672;BME280;72378;52.468;13.432;2023-09-07T08:25:07;102022.50;;;32.62;29.12
82672;BME280;72378;52.468;13.432;2023-09-07T08:27:34;102024.00;;;31.82;30.42
82672;BME280;72378;52.468;13.432;2023-09-07T08:30:00;102013.09;;;33.00;28.05
82672;BME280;72378;52.468;13.432;2023-09-07T08:32:28;102010.94;;;32.68;27.92
82672;BME280;72378;52.468;13.432;2023-09-07T08:34:55;102019.25;;;32.21;27.95
82672;BME280;72378;52.468;13.432;2023-09-07T08:37:23;102017.47;;;33.29;26.69
82672;BME280;72378;52.468;13.432;2023-09-07T08:39:49;102016.63;;;33.52;26.68
82672;BME280;72378;52.468;13.432;2023-09-07T08:42:16;102016.56;;;32.68;27.57
82672;BME280;72378;52.468;13.432;2023-09-07T08:44:44;102018.16;;;33.40;26.49
82672;BME280;72378;52.468;13.432;2023-09-07T08:47:13;102023.47;;;33.41;26.17
82672;BME280;72378;52.468;13.432;2023-09-07T08:49:43;102013.44;;;33.59;25.83
82672;BME280;72378;52.468;13.432;2023-09-07T08:52:11;102015.84;;;33.84;25.99
82672;BME280;72378;52.468;13.432;2023-09-07T08:54:38;102012.66;;;34.41;25.02
82672;BME280;72378;52.468;13.432;2023-09-07T08:57:05;102013.72;;;34.45;24.86
82672;BME280;72378;52.468;13.432;2023-09-07T08:59:32;102016.44;;;34.64;23.81
82672;BME280;72378;52.468;13.432;2023-09-07T09:01:58;102021.97;;;32.83;26.36
82672;BME280;72378;52.468;13.432;2023-09-07T09:04:25;102012.88;;;34.45;24.63
82672;BME280;72378;52.468;13.432;2023-09-07T09:06:54;102010.94;;;34.27;24.71
82672;BME280;72378;52.468;13.432;2023-09-07T09:09:24;102006.78;;;34.38;25.01
82672;BME280;72378;52.468;13.432;2023-09-07T09:11:51;102017.00;;;33.46;25.43
82672;BME280;72378;52.468;13.432;2023-09-07T09:14:18;102008.34;;;33.42;25.64
82672;BME280;72378;52.468;13.432;2023-09-07T09:16:48;102013.97;;;33.98;24.87
82672;BME280;72378;52.468;13.432;2023-09-07T09:19:16;102012.88;;;34.45;24.72
82672;BME280;72378;52.468;13.432;2023-09-07T09:21:44;102007.75;;;33.45;25.11
82672;BME280;72378;52.468;13.432;2023-09-07T09:24:13;102011.84;;;34.54;24.35
82672;BME280;72378;52.468;13.432;2023-09-07T09:26:43;102004.41;;;34.91;23.80
82672;BME280;72378;52.468;13.432;2023-09-07T09:29:09;102009.59;;;34.97;23.89
82672;BME280;72378;52.468;13.432;2023-09-07T09:31:37;102000.31;;;33.54;25.29
82672;BME280;72378;52.468;13.432;2023-09-07T09:34:04;102000.81;;;34.85;23.92
82672;BME280;72378;52.468;13.432;2023-09-07T09:36:33;101995.84;;;35.09;23.60
82672;BME280;72378;52.468;13.432;2023-09-07T09:39:00;101997.25;;;35.47;22.51
82672;BME280;72378;52.468;13.432;2023-09-07T09:41:31;101994.38;;;34.98;23.22
82672;BME280;72378;52.468;13.432;2023-09-07T09:43:59;101983.31;;;35.15;22.89
82672;BME280;72378;52.468;13.432;2023-09-07T09:46:27;101991.22;;;35.13;24.03
82672;BME280;72378;52.468;13.432;2023-09-07T09:48:55;101990.75;;;36.49;22.19
82672;BME280;72378;52.468;13.432;2023-09-07T09:51:27;101990.06;;;35.77;22.46
82672;BME280;72378;52.468;13.432;2023-09-07T09:53:54;101991.94;;;36.04;22.58
82672;BME280;72378;52.468;13.432;2023-09-07T09:56:21;101979.56;;;35.20;22.89
82672;BME280;72378;52.468;13.432;2023-09-07T09:58:49;101986.53;;;35.71;21.86
82672;BME280;72378;52.468;13.432;2023-09-07T10:01:15;101982.25;;;35.96;21.86
82672;BME280;72378;52.468;13.432;2023-09-07T10:03:44;101986.34;;;36.73;20.59
82672;BME280;72378;52.468;13.432;2023-09-07T10:06:17;101980.81;;;36.90;20.90
82672;BME280;72378;52.468;13.432;2023-09-07T10:08:52;101974.34;;;35.62;22.35
82672;BME280;72378;52.468;13.432;2023-09-07T10:11:26;101977.97;;;36.43;21.44
82672;BME280;72378;52.468;13.432;2023-09-07T10:13:58;101968.50;;;35.23;23.16
82672;BME280;72378;52.468;13.432;2023-09-07T10:16:24;101969.25;;;35.64;22.31
82672;BME280;72378;52.468;13.432;2023-09-07T10:18:52;101972.97;;;35.73;22.26
82672;BME280;72378;52.468;13.432;2023-09-07T10:21:20;101973.41;;;37.12;20.41
82672;BME280;72378;52.468;13.432;2023-09-07T10:23:50;101975.75;;;35.51;22.61
82672;BME280;72378;52.468;13.432;2023-09-07T10:26:18;101968.84;;;35.08;22.17
82672;BME280;72378;52.468;13.432;2023-09-07T10:28:47;101965.28;;;35.43;21.46
82672;BME280;72378;52.468;13.432;2023-09-07T10:31:17;101958.44;;;34.54;23.24
82672;BME280;72378;52.468;13.432;2023-09-07T10:33:44;101958.53;;;34.90;23.31
82672;BME280;72378;52.468;13.432;2023-09-07T10:36:20;101967.22;;;35.78;22.31
82672;BME280;72378;52.468;13.432;2023-09-07T10:38:47;101960.59;;;36.58;21.27
82672;BME280;72378;52.468;13.432;2023-09-07T10:41:14;101956.25;;;35.77;21.17
82672;BME280;72378;52.468;13.432;2023-09-07T10:43:47;101959.94;;;36.61;20.66
82672;BME280;72378;52.468;13.432;2023-09-07T10:46:15;101947.81;;;36.60;20.00
82672;BME280;72378;52.468;13.432;2023-09-07T10:48:44;101954.44;;;36.56;20.61
82672;BME280;72378;52.468;13.432;2023-09-07T10:51:10;101956.81;;;37.10;20.01
82672;BME280;72378;52.468;13.432;2023-09-07T10:53:37;101959.81;;;37.22;19.25
82672;BME280;72378;52.468;13.432;2023-09-07T10:56:05;101958.72;;;36.84;20.61
82672;BME280;72378;52.468;13.432;2023-09-07T10:58:32;101958.34;;;37.93;19.44
82672;BME280;72378;52.468;13.432;2023-09-07T11:01:00;101954.19;;;37.90;18.97
82672;BME280;72378;52.468;13.432;2023-09-07T11:03:28;101951.88;;;37.50;18.79
82672;BME280;72378;52.468;13.432;2023-09-07T11:05:56;101957.47;;;37.24;19.21
82672;BME280;72378;52.468;13.432;2023-09-07T11:08:23;101950.53;;;37.81;19.21
82672;BME280;72378;52.468;13.432;2023-09-07T11:10:50;101949.19;;;38.04;17.99
82672;BME280;72378;52.468;13.432;2023-09-07T11:13:16;101946.25;;;36.76;19.42
82672;BME280;72378;52.468;13.432;2023-09-07T11:15:42;101947.06;;;37.59;18.41
82672;BME280;72378;52.468;13.432;2023-09-07T11:18:09;101932.72;;;36.65;19.52
82672;BME280;72378;52.468;13.432;2023-09-07T11:20:37;101938.09;;;36.75;19.39
82672;BME280;72378;52.468;13.432;2023-09-07T11:23:05;101934.06;;;36.59;19.47
82672;BME280;72378;52.468;13.432;2023-09-07T11:25:35;101929.59;;;37.31;18.30
82672;BME280;72378;52.468;13.432;2023-09-07T11:28:03;101928.28;;;36.72;19.25
82672;BME280;72378;52.468;13.432;2023-09-07T11:30:29;101924.47;;;37.50;18.35
82672;BME280;72378;52.468;13.432;2023-09-07T11:33:03;101932.25;;;37.87;17.70
82672;BME280;72378;52.468;13.432;2023-09-07T11:35:32;101925.94;;;37.82;17.44
82672;BME280;72378;52.468;13.432;2023-09-07T11:38:02;101921.81;;;36.72;18.54
82672;BME280;72378;52.468;13.432;2023-09-07T11:40:29;101927.53;;;36.89;18.89
82672;BME280;72378;52.468;13.432;2023-09-07T11:42:55;101920.81;;;37.50;18.10
82672;BME280;72378;52.468;13.432;2023-09-07T11:45:22;101924.88;;;38.21;17.85
82672;BME280;72378;52.468;13.432;2023-09-07T11:47:49;101918.13;;;37.87;18.17
82672;BME280;72378;52.468;13.432;2023-09-07T11:50:16;101921.31;;;37.86;18.05
82672;BME280;72378;52.468;13.432;2023-09-07T11:52:43;101920.75;;;36.90;18.77
82672;BME280;72378;52.468;13.432;2023-09-07T11:55:13;101916.16;;;37.37;18.87
82672;BME280;72378;52.468;13.432;2023-09-07T11:57:39;101911.69;;;36.71;19.07
82672;BME280;72378;52.468;13.432;2023-09-07T12:00:07;101923.91;;;37.05;18.33
82672;BME280;72378;52.468;13.432;2023-09-07T12:02:36;101919.13;;;37.83;17.42
82672;BME280;72378;52.468;13.432;2023-09-07T12:05:03;101909.63;;;36.85;18.46
82672;BME280;72378;52.468;13.432;2023-09-07T12:07:32;101910.34;;;37.50;18.50
82672;BME280;72378;52.468;13.432;2023-09-07T12:09:58;101909.47;;;37.92;18.08
82672;BME280;72378;52.468;13.432;2023-09-07T12:12:26;101913.94;;;37.93;18.18
82672;BME280;72378;52.468;13.432;2023-09-07T12:14:52;101909.78;;;36.80;19.34
82672;BME280;72378;52.468;13.432;2023-09-07T12:17:21;101908.25;;;36.35;19.40
82672;BME280;72378;52.468;13.432;2023-09-07T12:19:47;101906.19;;;37.22;18.79
82672;BME280;72378;52.468;13.432;2023-09-07T12:22:14;101910.00;;;37.52;18.44
82672;BME280;72378;52.468;13.432;2023-09-07T12:24:40;101911.69;;;37.27;19.18
82672;BME280;72378;52.468;13.432;2023-09-07T12:27:07;101907.34;;;37.38;19.33
82672;BME280;72378;52.468;13.432;2023-09-07T12:29:35;101918.94;;;37.96;18.39
82672;BME280;72378;52.468;13.432;2023-09-07T12:32:01;101902.69;;;37.76;18.62
82672;BME280;72378;52.468;13.432;2023-09-07T12:34:27;101908.97;;;36.88;20.36
82672;BME280;72378;52.468;13.432;2023-09-07T12:36:54;101910.31;;;37.93;18.41
82672;BME280;72378;52.468;13.432;2023-09-07T12:39:20;101896.75;;;37.35;18.18